Tropical Cyclones
[Index]
Main Index Home Page Stock Weather Photos Extreme Storms Discussion Storm News and Storm Chasing Reports Tropical Cyclones / Hurricanes / Typhoons Weather Data and Links Wild Fires / Bushfires Weather Observation Techniques Weather Picture Catalogue Tornado Pictures and Reports Stock Video Footage and DVDs for sale
Season 2008-2009 Tropical Cyclone FANELE Track Map
Season 2008-2009 Summaries: [BoM-AU] [JTWC-AU] [JTWC-SIO] [JTWC-SPAC] [JTWC-SH]
<<- Previous TC | JTWC 2008-2009 Season | Next TC ->>

click for intensity scale information  Lat/long Grid: Show Hide

 Date Labels: Show Hide

Joint Typhoon Warning Centre Cyclone Data

Name: FANELE

17 Jan 2009 18:00 UTC to 23 Jan 2009 18:00 UTC

    date/time    lat    long     hPa   cat  kts
2009-01-17 18   20.6    42.7    1007         20          
2009-01-18 00   20.9    42.6    1004         25          
2009-01-18 06   21.2    42.2    1000         30          
2009-01-18 12   21.7    42.0    1000         30          
2009-01-18 18   21.7    41.6    1000         30          
2009-01-19 00   21.5    41.2     993    1    40          
2009-01-19 06   21.7    41.0     993    1    40          
2009-01-19 12   22.0    40.9     982    2    55          
2009-01-19 18   21.5    41.4     974    2    65          
2009-01-19 18   21.5    41.4     974    2    65          
2009-01-20 00   21.1    42.0     956    3    90          
2009-01-20 00   21.1    42.0     956    3    90          
2009-01-20 00   21.1    42.0     956    3    90          
2009-01-20 06   20.5    42.3     948    4   100          
2009-01-20 06   20.5    42.3     948    4   100          
2009-01-20 06   20.5    42.3     948    4   100          
2009-01-20 12   20.1    42.6     937    4   115          
2009-01-20 12   20.1    42.6     937    4   115          
2009-01-20 12   20.1    42.6     937    4   115          
2009-01-20 15   20.0    42.9     944    4   105          
2009-01-20 15   20.0    42.9     944    4   105          
2009-01-20 15   20.0    42.9     944    4   105          
2009-01-20 18   20.1    43.2     944    4   105          
2009-01-20 18   20.1    43.2     944    4   105          
2009-01-20 18   20.1    43.2     944    4   105          
2009-01-21 00   20.6    43.6     948    4   100          
2009-01-21 00   20.6    43.6     948    4   100          
2009-01-21 00   20.6    43.6     948    4   100          
2009-01-21 06   21.3    44.3     963    3    80          
2009-01-21 06   21.3    44.3     963    3    80          
2009-01-21 06   21.3    44.3     963    3    80          
2009-01-21 12   22.4    45.3    1000         30          
2009-01-21 18   23.4    46.5    1000         30          
2009-01-22 00   23.9    47.9    1004         25          
2009-01-22 06   24.5    49.3    1000         30          
2009-01-22 12   25.3    50.5    1000         30          
2009-01-22 18   26.6    51.2     996         35          
2009-01-23 00   27.9    51.9     996         35          
2009-01-23 06   29.4    52.3     996         35          
2009-01-23 12   31.0    53.1    1004         25          
2009-01-23 18   31.5    53.8    1004         25          
Winds are 1-min average.

Tropical cyclone tracks developed by Michael Bath using data from the Joint Typhoon Warning Centre Best Tracks and Google Maps.


[Australian Severe Weather index] [Copyright Notice] [Email Contacts] [Search This Site] [Privacy Policy]
Document: tropical_cyclone_fanele.htm Updated: 28 June 2017